Nathaniel B. Palmer — WBP3210 — position and weather

sailwx.info

Track history (hours):
 
Tides and Currents Weather Stations Pressure Air Temp Water Temp Dewpoint Dewpoint Depression Visibility Wind Speed Wind Dir Waves Ship Positions

Oceanographic research ship Nathaniel B. Palmer (USA)

Contact: Ethan Norris, ethan.norris.contractor@usap.gov

Detailed information on ship capabilities available from University of Delaware's Ocean Information Center and ARCUS's ALIAS (Arctic Logistics Information and Support) project.

Owner: OFFSHORE SERVICE VESSELS, Cut Off, LA. More information available from US FCC via Universal Licensing System and Coast Guard Vessel Documentation Center.

Last reported at 2020-Jul-03 19:00 UTC. Time now 2020-Jul-03 20:08 UTC.
Position N 40°42' W 124°06'.

Type: Other ship. MMSI: 366610000.

Wind from 010 at 7 knots

Barometer 1020.0 mb
Air temperature 13.7 ° C
Water temperature -0.0 ° C

Date/timePositionNaut miles runAvg speedWind from/ knotsBaromVisibWave heightAir tempDewpointWater temp
2020-Jul-03 19:00N 40°42' W 124°06'0 0.0 010 / 71020.0 13.7 -0.0
2020-Jul-03 18:00N 40°42' W 124°06'0 0.0 030 / 61019.6 12.9 -0.0
2020-Jul-03 17:00N 40°42' W 124°06'0 0.0 010 / 41019.5 11.6 -0.0
2020-Jul-03 16:00N 40°42' W 124°06'0 0.0 200 / 21018.9 11.0 -0.0
2020-Jul-03 15:00N 40°42' W 124°06'0 0.0 290 / 51018.6 11.1 -0.0
2020-Jul-03 14:00N 40°42' W 124°06'0 0.0 280 / 41018.2 12.0 -0.0
2020-Jul-03 13:00N 40°42' W 124°06'0 0.0 290 / 51018.0 11.6 -0.0
2020-Jul-03 12:00N 40°42' W 124°06'0 0.0 320 / 41017.8 11.6 -0.0
2020-Jul-03 11:00N 40°42' W 124°06'0 0.0 310 / 41017.6 11.8 -0.0
2020-Jul-03 10:00N 40°42' W 124°06'0 0.0 310 / 31017.4 12.0 -0.0
2020-Jul-03 09:00N 40°42' W 124°06'0 0.0 300 / 11017.1 12.1 -0.0
2020-Jul-03 08:00N 40°42' W 124°06'0 0.0 310 / 21016.9 11.8 -0.0
2020-Jul-03 07:00N 40°42' W 124°06'0 0.0 290 / 11017.0 11.5 -0.0
2020-Jul-03 06:00N 40°42' W 124°06'0 0.0 330 / 21017.2 11.6 -0.0
2020-Jul-03 05:00N 40°42' W 124°06'0 0.0 300 / 31016.8 11.9 -0.0
2020-Jul-03 04:00N 40°42' W 124°06'0 0.0 300 / 31016.4 12.7 -0.0
2020-Jul-03 03:00N 40°42' W 124°06'0 0.0 330 / 41016.3 13.5 -0.0
2020-Jul-03 02:00N 40°42' W 124°06'0 0.0 320 / 41016.1 14.0 -0.0
2020-Jul-03 01:00N 40°42' W 124°06'0 0.0 310 / 41016.0 14.0 -0.0
2020-Jul-03 00:00N 40°42' W 124°06'0 0.0 330 / 61015.8 13.7 -0.0
2020-Jul-02 23:00N 40°42' W 124°06'0 0.0 330 / 51015.7 13.6 -0.0
2020-Jul-02 22:00N 40°42' W 124°06'0 0.0 330 / 61015.3 13.1 -0.0
2020-Jul-02 21:00N 40°42' W 124°06'0 0.0 330 / 81014.9 12.5 -0.0
2020-Jul-02 20:00N 40°42' W 124°06'0 0.0 330 / 111014.5 12.1 -0.0
2020-Jul-02 19:00N 40°42' W 124°06'0 0.0 310 / 71014.2 12.6 -0.0
2020-Jul-02 18:00N 40°42' W 124°06'0 0.0 290 / 51013.9 12.6 -0.0
2020-Jul-02 17:00N 40°42' W 124°06'0 0.0 250 / 51014.0 12.3 -0.0
2020-Jul-02 16:00N 40°42' W 124°06'0 0.0 200 / 81014.0 11.5 -0.0
2020-Jul-02 15:00N 40°42' W 124°06'0 0.0 190 / 31014.0 10.8 -0.0
2020-Jul-02 14:00N 40°42' W 124°06'0 0.0 150 / 51013.9 9.9 -0.0
2020-Jul-02 13:00N 40°42' W 124°06'0 0.0 200 / 41013.8 10.1 -0.0
2020-Jul-02 12:00N 40°42' W 124°06'0 0.0 220 / 11013.9 10.3 -0.0
2020-Jul-02 11:00N 40°42' W 124°06'0 0.0 150 / 31013.9 10.6 -0.0
2020-Jul-02 10:00N 40°42' W 124°06'0 0.0 310 / 21014.3 10.5 -0.0
2020-Jul-02 09:00N 40°42' W 124°06'0 0.0 320 / 51014.8 10.8 -0.0
2020-Jul-02 08:00N 40°42' W 124°06'0 0.0 330 / 61015.2 11.3 -0.0
2020-Jul-02 07:00N 40°42' W 124°06'0 0.0 330 / 71015.5 11.5 -0.0
2020-Jul-02 06:00N 40°42' W 124°06'0 0.0 330 / 91015.5 11.6 -0.0
2020-Jul-02 05:00N 40°42' W 124°06'0 0.0 340 / 131015.1 11.8 -0.0
2020-Jul-02 04:00N 40°42' W 124°06'0 0.0 340 / 111015.1 12.0 -0.0
2020-Jul-02 03:00N 40°42' W 124°06'0 0.0 360 / 71015.3 12.6 -0.0
2020-Jul-02 02:00N 40°42' W 124°06'0 0.0 350 / 91015.4 13.0 -0.0
2020-Jul-02 01:00N 40°42' W 124°06'0 0.0 340 / 101015.7 13.0 -0.0
2020-Jul-02 00:00N 40°42' W 124°06'0 0.0 340 / 121015.8 13.0 -0.0
2020-Jul-01 23:00N 40°42' W 124°06'0 0.0 350 / 131015.9 13.2 -0.0
2020-Jul-01 22:00N 40°42' W 124°06'0 0.0 340 / 151015.7 13.3 -0.0
2020-Jul-01 21:00N 40°42' W 124°06'0 0.0 340 / 161015.4 13.3 -0.0
2020-Jul-01 20:00N 40°42' W 124°06'0 0.0 350 / 141015.4 13.3 -0.0
2020-Jul-01 19:00N 40°42' W 124°06'0 0.0 350 / 111015.4 12.7 -0.0
2020-Jul-01 18:00N 40°42' W 124°06'0 0.0 330 / 51015.3 12.5 -0.0
2020-Jul-01 17:00N 40°42' W 124°06'0 0.0 340 / 41015.3 11.7 -0.0
2020-Jul-01 16:00N 40°42' W 124°06'0 0.0 340 / 61015.0 11.5 -0.0
2020-Jul-01 15:00N 40°42' W 124°06'0 0.0 330 / 41014.7 11.1 -0.0
2020-Jul-01 14:00N 40°42' W 124°06'0 0.0 270 / 21014.7 11.1 -0.0
2020-Jul-01 13:00N 40°42' W 124°06'0 0.0 120 / 11014.7 11.2 -0.0
2020-Jul-01 12:00N 40°42' W 124°06'0 0.0 140 / 31014.7 11.1 -0.0
2020-Jul-01 11:00N 40°42' W 124°06'0 0.0 290 / 31015.3 11.0 -0.0
2020-Jul-01 10:00N 40°42' W 124°06'0 0.0 320 / 51015.7 11.3 -0.0
2020-Jul-01 09:00N 40°42' W 124°06'0 0.0 290 / 31016.3 11.5 -0.0
2020-Jul-01 08:00N 40°42' W 124°06'0 0.0 330 / 41016.8 11.8 -0.0
2020-Jul-01 07:00N 40°42' W 124°06'0 0.0 340 / 61017.2 11.9 -0.0
2020-Jul-01 06:00N 40°42' W 124°06'0 0.0 340 / 51017.6 11.8 -0.0
2020-Jul-01 05:00N 40°42' W 124°06'0 0.0 320 / 41017.6 11.3 -0.0
2020-Jul-01 04:00N 40°42' W 124°06'0 0.0 330 / 41017.5 12.0 -0.0
2020-Jul-01 03:00N 40°42' W 124°06'0 0.0 330 / 61017.6 12.8 -0.0
2020-Jul-01 02:00N 40°42' W 124°06'0 0.0 330 / 71017.9 13.1 -0.0
2020-Jul-01 01:00N 40°42' W 124°06'0 0.0 340 / 81018.5 13.3 -0.0
2020-Jul-01 00:00N 40°42' W 124°06'0 0.0 340 / 81018.9 13.3 -0.0
2020-Jun-30 23:00N 40°42' W 124°06'0 0.0 340 / 101019.0 12.8 -0.0
2020-Jun-30 22:00N 40°42' W 124°06'0 0.0 350 / 81019.1 12.9 -0.0
2020-Jun-30 21:00N 40°42' W 124°06'0 0.0 330 / 101019.0 12.6 -0.0
2020-Jun-30 20:00N 40°42' W 124°06'0 0.0 340 / 111018.9 13.1 -0.0
2020-Jun-30 19:00N 40°42' W 124°06'0 0.0 340 / 121018.6 13.2 -0.0
2020-Jun-30 18:00N 40°42' W 124°06'0 0.0 320 / 71018.6 12.8 -0.0
2020-Jun-30 17:00N 40°42' W 124°06'0 0.0 260 / 41018.5 12.6 -0.0
2020-Jun-30 16:00N 40°42' W 124°06'0 0.0 200 / 41018.5 11.9 -0.0
2020-Jun-30 15:00N 40°42' W 124°06'0 0.0 240 / 31018.5 11.3 -0.0
2020-Jun-30 14:00N 40°42' W 124°06'0 0.0 290 / 41018.2 10.8 -0.0
2020-Jun-30 13:00N 40°42' W 124°06'0 0.0 340 / 21018.0 11.0 -0.0
2020-Jun-30 12:00N 40°42' W 124°06'0 0.0 350 / 11017.7 10.3 -0.0
2020-Jun-30 11:00N 40°42' W 124°06'0 0.0 300 / 41017.7 11.1 -0.0
2020-Jun-30 10:00N 40°42' W 124°06'0 0.0 320 / 41017.9 11.6 -0.0
2020-Jun-30 09:00N 40°42' W 124°06'0 0.0 330 / 21018.2 12.1 -0.0
2020-Jun-30 08:00N 40°42' W 124°06'0 0.0 350 / 41018.2 12.3 -0.0
2020-Jun-30 07:00N 40°42' W 124°06'0 0.0 350 / 31018.4 12.1 -0.0
2020-Jun-30 06:00N 40°42' W 124°06'0 0.0 350 / 21018.4 12.3 -0.0
2020-Jun-30 05:00N 40°42' W 124°06'0 0.0 330 / 21018.3 12.3 -0.0
2020-Jun-30 04:00N 40°42' W 124°06'0 0.0 330 / 101018.0 12.6 -0.0
2020-Jun-30 03:00N 40°42' W 124°06'0 0.0 330 / 111017.9 13.4 -0.0
2020-Jun-30 02:00N 40°42' W 124°06'0 0.0 340 / 81017.9 13.7 -0.0
2020-Jun-30 01:00N 40°42' W 124°06'0 0.0 340 / 71017.9 13.8 -0.0
2020-Jun-30 00:00N 40°42' W 124°06'0 0.0 350 / 141017.5 13.7 -0.0
2020-Jun-29 23:00N 40°42' W 124°06'0 0.0 350 / 121017.8 13.7 -0.0
2020-Jun-29 22:00N 40°42' W 124°06'0 0.0 350 / 111017.9 13.5 -0.0
2020-Jun-29 21:00N 40°42' W 124°06'0 0.0 350 / 151017.5 13.5 -0.0
2020-Jun-29 20:00N 40°42' W 124°06'0 0.0 350 / 181017.2 13.3 -0.0
2020-Jun-29 19:00N 40°42' W 124°06'0 0.0 350 / 161017.1 12.9 -0.0
2020-Jun-29 18:00N 40°42' W 124°06'0 0.0 360 / 111016.9 12.5 -0.0
2020-Jun-29 17:00N 40°42' W 124°06'0 0.0 350 / 91016.7 12.5 -0.0
2020-Jun-29 16:00N 40°42' W 124°06'0 0.0 310 / 41016.4 12.0 -0.0
2020-Jun-29 15:00N 40°42' W 124°06'0 0.0 170 / 31016.0 10.8 -0.0
2020-Jun-29 14:00N 40°42' W 124°06'0 0.0 180 / 31015.6 9.7 -0.0
2020-Jun-29 13:00N 40°42' W 124°06'0 0.0 250 / 11015.0 9.8 -0.0
2020-Jun-29 12:00N 40°42' W 124°06'0 0.0 150 / 21014.4 10.3 -0.0
2020-Jun-29 11:00N 40°42' W 124°06'0 0.0 080 / 41014.4 10.6 -0.0
2020-Jun-29 10:00N 40°42' W 124°06'0 0.0 360 / 101014.6 10.4 -0.0
2020-Jun-29 09:00N 40°42' W 124°06'0 0.0 350 / 121014.6 10.8 -0.0
2020-Jun-29 08:00N 40°42' W 124°06'0 0.0 340 / 91015.0 11.1 -0.0
2020-Jun-29 07:00N 40°42' W 124°06'0 0.0 320 / 31015.2 11.3 -0.0
2020-Jun-29 06:00N 40°42' W 124°06'0 0.0 1015.0 12.0 -0.0
2020-Jun-29 05:00N 40°42' W 124°06'0 0.0 020 / 101015.0 12.5 -0.0
2020-Jun-29 04:00N 40°42' W 124°06'0 0.0 020 / 81014.6 12.4 -0.0
2020-Jun-29 03:00N 40°42' W 124°06'0 0.0 010 / 121014.0 12.8 -0.0
2020-Jun-29 02:00N 40°42' W 124°06'0 0.0 010 / 141013.6 13.1 -0.0
2020-Jun-29 01:00N 40°42' W 124°06'0 0.0 1013.3 13.4 -0.0
2020-Jun-29 00:00N 40°42' W 124°06'0 0.0 1013.4 13.6 -0.0
2020-Jun-28 23:00N 40°42' W 124°06'0 0.0 360 / 161013.4 13.6 -0.0
2020-Jun-28 22:00N 40°42' W 124°06'0 0.0 350 / 171013.4 13.6 -0.0
2020-Jun-28 21:00N 40°42' W 124°06'0 0.0 360 / 161013.4 13.2 -0.0
2020-Jun-28 20:00N 40°42' W 124°06'0 0.0 1013.2 13.2 -0.0
2020-Jun-28 19:00N 40°42' W 124°06'0 0.0 1012.8 13.2 -0.0
2020-Jun-28 18:00N 40°42' W 124°06'0 0.0 010 / 141012.9 12.8 -0.0
2020-Jun-28 17:00N 40°42' W 124°06'0 0.0 360 / 131012.7 12.6 -0.0
2020-Jun-28 16:00N 40°42' W 124°06'0 0.0 360 / 101012.4 11.9 -0.0
2020-Jun-28 15:00N 40°42' W 124°06'0 0.0 350 / 111012.2 11.4 -0.0
2020-Jun-28 14:00N 40°42' W 124°06'0 0.0 340 / 101012.3 11.2 -0.0
2020-Jun-28 13:00N 40°42' W 124°06'0 0.0 350 / 81012.6 11.1 -0.0
2020-Jun-28 12:00N 40°42' W 124°06'0 0.0 350 / 101012.6 11.3 -0.0
2020-Jun-28 11:00N 40°42' W 124°06'0 0.0 340 / 101012.4 11.3 -0.0
2020-Jun-28 10:00N 40°42' W 124°06'0 0.0 340 / 91012.8 11.3 -0.0
2020-Jun-28 09:00N 40°42' W 124°06'0 0.0 330 / 91012.9 11.6 -0.0
2020-Jun-28 08:00N 40°42' W 124°06'0 0.0 320 / 61013.1 12.0 -0.0
2020-Jun-28 07:00N 40°42' W 124°06'0 0.0 330 / 71013.6 12.2 -0.0
2020-Jun-28 06:00N 40°42' W 124°06'0 0.0 340 / 61014.2 12.4 -0.0
2020-Jun-28 05:00N 40°42' W 124°06'0 0.0 350 / 61014.5 12.5 -0.0
2020-Jun-28 04:00N 40°42' W 124°06'0 0.0 350 / 81014.4 12.8 -0.0
2020-Jun-28 03:00N 40°42' W 124°06'0 0.0 350 / 61014.4 13.4 -0.0
2020-Jun-28 02:00N 40°42' W 124°06'0 0.0 350 / 71014.6 13.7 -0.0
2020-Jun-28 01:00N 40°42' W 124°06'0 0.0 330 / 91014.9 13.8 -0.0
2020-Jun-28 00:00N 40°42' W 124°06'0 0.0 320 / 151014.7 13.8 -0.0
2020-Jun-27 23:00N 40°42' W 124°06'0 0.0 320 / 151015.1 14.0 -0.0
2020-Jun-27 22:00N 40°42' W 124°06'0 0.0 330 / 101015.7 13.8 -0.0
2020-Jun-27 21:00N 40°42' W 124°06'0 0.0 340 / 111015.7 13.6 -0.0
2020-Jun-27 20:00N 40°42' W 124°06'0 0.0 350 / 151015.4 13.1 -0.0
2020-Jun-27 19:00N 40°42' W 124°06'0 0.0 330 / 91015.3 12.6 -0.0
2020-Jun-27 18:00N 40°42' W 124°06'0 0.0 330 / 71014.9 12.3 -0.0
2020-Jun-27 17:00N 40°42' W 124°06'0 0.0 340 / 41015.0 12.0 -0.0
2020-Jun-27 16:00N 40°42' W 124°06'0 0.0 220 / 41014.4 11.5 -0.0
2020-Jun-27 15:00N 40°42' W 124°06'0 0.0 230 / 51014.1 11.1 -0.0
2020-Jun-27 14:00N 40°42' W 124°06'0 0.0 170 / 51013.9 11.2 -0.0
2020-Jun-27 13:00N 40°42' W 124°06'0 0.0 220 / 51013.9 11.1 -0.0
2020-Jun-27 12:00N 40°42' W 124°06'0 0.0 260 / 41013.7 11.6 -0.0
2020-Jun-27 11:00N 40°42' W 124°06'0 0.0 180 / 41013.6 11.8 -0.0
2020-Jun-27 10:00N 40°42' W 124°06'0 0.0 190 / 51013.6 12.0 -0.0
2020-Jun-27 09:00N 40°42' W 124°06'0 0.0 190 / 61013.6 12.3 -0.0
2020-Jun-27 08:00N 40°42' W 124°06'0 0.0 270 / 31013.8 12.5 -0.0
2020-Jun-27 07:00N 40°42' W 124°06'0 0.0 210 / 61013.6 12.3 -0.0
2020-Jun-27 06:00N 40°42' W 124°06'0 0.0 210 / 41013.7 12.7 -0.0
2020-Jun-27 05:00N 40°42' W 124°06'0 0.0 230 / 51013.6 13.0 -0.0
2020-Jun-27 04:00N 40°42' W 124°06'0 0.0 230 / 51013.7 14.1 -0.0
2020-Jun-27 03:00N 40°42' W 124°06'0 0.0 260 / 31013.8 15.4 -0.0
2020-Jun-27 02:00N 40°42' W 124°06'0 0.0 290 / 51013.7 15.2 -0.0
2020-Jun-27 01:00N 40°42' W 124°06'0 0.0 280 / 51013.6 14.9 -0.0
2020-Jun-27 00:00N 40°42' W 124°06'0 0.0 290 / 51013.8 14.6 -0.0
2020-Jun-26 23:00N 40°42' W 124°06'0 0.0 290 / 51014.1 14.4 -0.0
2020-Jun-26 22:00N 40°42' W 124°06'0 0.0 300 / 71014.2 13.7 -0.0
2020-Jun-26 21:00N 40°42' W 124°06'0 0.0 300 / 41014.1 13.6 -0.0
2020-Jun-26 20:00N 40°42' W 124°06'0 0.0 310 / 41013.9 12.4 -0.0
2020-Jun-26 19:00N 40°42' W 124°06'0 0.0 320 / 41013.4 12.4 -0.0
2020-Jun-26 18:00N 40°42' W 124°06'0 0.0 320 / 31013.1 12.3 -0.0
2020-Jun-26 17:00N 40°42' W 124°06'0 0.0 300 / 41012.7 11.9 -0.0
2020-Jun-26 16:00N 40°42' W 124°06'0 0.0 220 / 11012.6 12.0 -0.0
2020-Jun-26 15:00N 40°42' W 124°06'0 0.0 230 / 11012.7 11.4 -0.0
2020-Jun-26 14:00N 40°42' W 124°06'0 0.0 280 / 31012.5 11.3 -0.0
2020-Jun-26 13:00N 40°42' W 124°06'0 0.0 300 / 31012.2 11.6 -0.0
2020-Jun-26 12:00N 40°42' W 124°06'0 0.0 330 / 21011.9 11.9 -0.0
2020-Jun-26 11:00N 40°42' W 124°06'0 0.0 340 / 21011.7 11.8 -0.0
2020-Jun-26 10:00N 40°42' W 124°06'0 0.0 200 / 51011.4 11.7 -0.0
2020-Jun-26 09:00N 40°42' W 124°06'0 0.0 200 / 81011.4 11.7 -0.0
2020-Jun-26 08:00N 40°42' W 124°06'0 0.0 230 / 61011.9 11.8 -0.0
2020-Jun-26 06:00N 40°42' W 124°06'0 0.0 300 / 21012.5 12.2 -0.0
2020-Jun-26 05:00N 40°42' W 124°06'0 0.0 340 / 71012.2 12.1 -0.0
2020-Jun-26 04:00N 40°42' W 124°06'0 0.0 340 / 71011.8 12.8 -0.0
2020-Jun-26 03:00N 40°42' W 124°06'0 0.0 310 / 41011.7 13.8 -0.0
2020-Jun-26 02:00N 40°42' W 124°06'0 0.0 310 / 51011.8 13.9 -0.0
2020-Jun-26 01:00N 40°42' W 124°06'0 0.0 320 / 71012.1 13.7 -0.0
2020-Jun-26 00:00N 40°42' W 124°06'0 0.0 340 / 91012.4 13.4 -0.0
2020-Jun-25 23:00N 40°42' W 124°06'0 0.0 330 / 91012.4 13.6 -0.0
2020-Jun-25 22:00N 40°42' W 124°06'0 0.0 340 / 91012.5 13.6 -0.0
2020-Jun-25 21:00N 40°42' W 124°06'0 0.0 340 / 81012.3 13.1 -0.0
2020-Jun-25 20:00N 40°42' W 124°06'0 0.0 320 / 61012.3 12.8 -0.0
2020-Jun-25 19:00N 40°42' W 124°06'0 0.0 270 / 51012.0 12.4 -0.0
2020-Jun-25 18:00N 40°42' W 124°06'0 0.0 290 / 51012.0 11.9 -0.0
2020-Jun-25 17:00N 40°42' W 124°06'0 0.0 340 / 51012.2 12.0 -0.0
2020-Jun-25 16:00N 40°42' W 124°06'0 0.0 320 / 31012.1 11.9 -0.0
2020-Jun-25 15:00N 40°42' W 124°06'0 0.0 330 / 41011.9 11.8 -0.0
2020-Jun-25 14:00N 40°42' W 124°06'0 0.0 310 / 31011.8 11.9 -0.0
2020-Jun-25 13:00N 40°42' W 124°06'0 0.0 300 / 31011.5 12.1 -0.0
2020-Jun-25 12:00N 40°42' W 124°06'0 0.0 350 / 31011.3 12.2 -0.0
2020-Jun-25 11:00N 40°42' W 124°06'0 0.0 270 / 31011.0 12.2 -0.0
2020-Jun-25 10:00N 40°42' W 124°06'0 0.0 200 / 61011.2 12.2 -0.0
2020-Jun-25 09:00N 40°42' W 124°06'0 0.0 230 / 31012.0 12.6 -0.0
2020-Jun-25 08:00N 40°42' W 124°06'0 0.0 290 / 21012.8 12.9 -0.0
2020-Jun-25 07:00N 40°42' W 124°06'0 0.0 330 / 31013.2 13.2 -0.0
2020-Jun-25 06:00N 40°42' W 124°06'0 0.0 360 / 51013.4 13.3 -0.0
2020-Jun-25 05:00N 40°42' W 124°06'0 0.0 340 / 71013.3 13.7 -0.0
2020-Jun-25 04:00N 40°42' W 124°06'0 0.0 330 / 41013.4 14.0 -0.0
2020-Jun-25 03:00N 40°42' W 124°06'0 0.0 310 / 41013.7 14.4 -0.0
2020-Jun-25 02:00N 40°42' W 124°06'0 0.0 310 / 41013.8 15.1 -0.0
2020-Jun-25 01:00N 40°42' W 124°06'0 0.0 330 / 61014.0 15.6 -0.0
2020-Jun-25 00:00N 40°42' W 124°06'0 0.0 340 / 81014.3 15.6 -0.0
2020-Jun-24 23:00N 40°42' W 124°06'0 0.0 350 / 71015.0 15.2 -0.0
2020-Jun-24 22:00N 40°42' W 124°06'0 0.0 360 / 61015.4 14.1 -0.0
2020-Jun-24 21:00N 40°42' W 124°06'0 0.0 340 / 71015.7 13.7 -0.0
2020-Jun-24 20:00N 40°42' W 124°06'0 0.0 320 / 41015.9 13.2 -0.0
2020-Jun-24 19:00N 40°42' W 124°06'0 0.0 320 / 71016.1 12.9 -0.0
2020-Jun-24 18:00N 40°42' W 124°06'0 0.0 260 / 51015.6 13.4 -0.0
2020-Jun-24 17:00N 40°42' W 124°06'0 0.0 210 / 21015.7 12.6 -0.0
2020-Jun-24 16:00N 40°42' W 124°06'0 0.0 360 / 51015.8 11.9 -0.0
2020-Jun-24 15:00N 40°42' W 124°06'0 0.0 340 / 81015.8 12.0 -0.0
2020-Jun-24 14:00N 40°42' W 124°06'0 0.0 340 / 41015.4 12.3 -0.0
2020-Jun-24 13:00N 40°42' W 124°06'0 0.0 340 / 21015.1 12.1 -0.0
2020-Jun-24 12:00N 40°42' W 124°06'0 0.0 320 / 11015.1 12.1 -0.0
2020-Jun-24 11:00N 40°42' W 124°06'0 0.0 260 / 31015.0 12.3 -0.0
2020-Jun-24 10:00N 40°42' W 124°06'0 0.0 290 / 41015.0 12.7 -0.0
2020-Jun-24 09:00N 40°42' W 124°06'0 0.0 340 / 61015.3 13.0 -0.0
2020-Jun-24 08:00N 40°42' W 124°06'0 0.0 010 / 81015.4 13.7 -0.0
2020-Jun-24 07:00N 40°42' W 124°06'0 0.0 1015.6 13.7 -0.0
2020-Jun-24 06:00N 40°42' W 124°06'0 0.0 300 / 41015.3 14.0 -0.0
2020-Jun-24 05:00N 40°42' W 124°06'0 0.0 290 / 21015.2 14.5 -0.0
2020-Jun-24 04:00N 40°42' W 124°06'0 0.0 330 / 31015.2 14.6 -0.0
2020-Jun-24 03:00N 40°42' W 124°06'0 0.0 360 / 41015.1 14.5 -0.0
2020-Jun-24 02:00N 40°42' W 124°06'0 0.0 340 / 51014.8 14.4 -0.0
2020-Jun-24 01:00N 40°42' W 124°06'0 0.0 340 / 71014.7 14.3 -0.0
2020-Jun-24 00:00N 40°42' W 124°06'0 0.0 340 / 81014.7 14.0 -0.0
2020-Jun-23 23:00N 40°42' W 124°06'0 0.0 320 / 71014.6 14.5 -0.0
2020-Jun-23 22:00N 40°42' W 124°06'0 0.0 320 / 61014.6 14.4 -0.0
2020-Jun-23 21:00N 40°42' W 124°06'0 0.0 280 / 61014.5 14.2 -0.0
2020-Jun-23 20:00N 40°42' W 124°06'0 0.0 230 / 111014.2 14.1 -0.0
2020-Jun-23 19:00N 40°42' W 124°06'   220 / 111014.0 14.1 -0.0
Track history (hours):
 
Tides and Currents Weather Stations Pressure Air Temp Water Temp Dewpoint Dewpoint Depression Visibility Wind Speed Wind Dir Waves Ship Positions

Oceanographic research ship Nathaniel B. Palmer (USA)

Contact: Ethan Norris, ethan.norris.contractor@usap.gov

Detailed information on ship capabilities available from University of Delaware's Ocean Information Center and ARCUS's ALIAS (Arctic Logistics Information and Support) project.

Owner: OFFSHORE SERVICE VESSELS, Cut Off, LA. More information available from US FCC via Universal Licensing System and Coast Guard Vessel Documentation Center.

Last reported at 2020-Jul-03 19:00 UTC. Time now 2020-Jul-03 20:08 UTC.
Position N 40°42' W 124°06'.

Type: Other ship. MMSI: 366610000.

Wind from 010 at 7 knots

Barometer 1020.0 mb
Air temperature 13.7 ° C
Water temperature -0.0 ° C

Date/timePositionNaut miles runAvg speedWind from/ knotsBaromVisibWave heightAir tempDewpointWater temp
2020-Jul-03 19:00N 40°42' W 124°06'0 0.0 010 / 71020.0 13.7 -0.0
2020-Jul-03 18:00N 40°42' W 124°06'0 0.0 030 / 61019.6 12.9 -0.0
2020-Jul-03 17:00N 40°42' W 124°06'0 0.0 010 / 41019.5 11.6 -0.0
2020-Jul-03 16:00N 40°42' W 124°06'0 0.0 200 / 21018.9 11.0 -0.0
2020-Jul-03 15:00N 40°42' W 124°06'0 0.0 290 / 51018.6 11.1 -0.0
2020-Jul-03 14:00N 40°42' W 124°06'0 0.0 280 / 41018.2 12.0 -0.0
2020-Jul-03 13:00N 40°42' W 124°06'0 0.0 290 / 51018.0 11.6 -0.0
2020-Jul-03 12:00N 40°42' W 124°06'0 0.0 320 / 41017.8 11.6 -0.0
2020-Jul-03 11:00N 40°42' W 124°06'0 0.0 310 / 41017.6 11.8 -0.0
2020-Jul-03 10:00N 40°42' W 124°06'0 0.0 310 / 31017.4 12.0 -0.0
2020-Jul-03 09:00N 40°42' W 124°06'0 0.0 300 / 11017.1 12.1 -0.0
2020-Jul-03 08:00N 40°42' W 124°06'0 0.0 310 / 21016.9 11.8 -0.0
2020-Jul-03 07:00N 40°42' W 124°06'0 0.0 290 / 11017.0 11.5 -0.0
2020-Jul-03 06:00N 40°42' W 124°06'0 0.0 330 / 21017.2 11.6 -0.0
2020-Jul-03 05:00N 40°42' W 124°06'0 0.0 300 / 31016.8 11.9 -0.0
2020-Jul-03 04:00N 40°42' W 124°06'0 0.0 300 / 31016.4 12.7 -0.0
2020-Jul-03 03:00N 40°42' W 124°06'0 0.0 330 / 41016.3 13.5 -0.0
2020-Jul-03 02:00N 40°42' W 124°06'0 0.0 320 / 41016.1 14.0 -0.0
2020-Jul-03 01:00N 40°42' W 124°06'0 0.0 310 / 41016.0 14.0 -0.0
2020-Jul-03 00:00N 40°42' W 124°06'0 0.0 330 / 61015.8 13.7 -0.0
2020-Jul-02 23:00N 40°42' W 124°06'0 0.0 330 / 51015.7 13.6 -0.0
2020-Jul-02 22:00N 40°42' W 124°06'0 0.0 330 / 61015.3 13.1 -0.0
2020-Jul-02 21:00N 40°42' W 124°06'0 0.0 330 / 81014.9 12.5 -0.0
2020-Jul-02 20:00N 40°42' W 124°06'0 0.0 330 / 111014.5 12.1 -0.0
2020-Jul-02 19:00N 40°42' W 124°06'0 0.0 310 / 71014.2 12.6 -0.0
2020-Jul-02 18:00N 40°42' W 124°06'0 0.0 290 / 51013.9 12.6 -0.0
2020-Jul-02 17:00N 40°42' W 124°06'0 0.0 250 / 51014.0 12.3 -0.0
2020-Jul-02 16:00N 40°42' W 124°06'0 0.0 200 / 81014.0 11.5 -0.0
2020-Jul-02 15:00N 40°42' W 124°06'0 0.0 190 / 31014.0 10.8 -0.0
2020-Jul-02 14:00N 40°42' W 124°06'0 0.0 150 / 51013.9 9.9 -0.0
2020-Jul-02 13:00N 40°42' W 124°06'0 0.0 200 / 41013.8 10.1 -0.0
2020-Jul-02 12:00N 40°42' W 124°06'0 0.0 220 / 11013.9 10.3 -0.0
2020-Jul-02 11:00N 40°42' W 124°06'0 0.0 150 / 31013.9 10.6 -0.0
2020-Jul-02 10:00N 40°42' W 124°06'0 0.0 310 / 21014.3 10.5 -0.0
2020-Jul-02 09:00N 40°42' W 124°06'0 0.0 320 / 51014.8 10.8 -0.0
2020-Jul-02 08:00N 40°42' W 124°06'0 0.0 330 / 61015.2 11.3 -0.0
2020-Jul-02 07:00N 40°42' W 124°06'0 0.0 330 / 71015.5 11.5 -0.0
2020-Jul-02 06:00N 40°42' W 124°06'0 0.0 330 / 91015.5 11.6 -0.0
2020-Jul-02 05:00N 40°42' W 124°06'0 0.0 340 / 131015.1 11.8 -0.0
2020-Jul-02 04:00N 40°42' W 124°06'0 0.0 340 / 111015.1 12.0 -0.0
2020-Jul-02 03:00N 40°42' W 124°06'0 0.0 360 / 71015.3 12.6 -0.0
2020-Jul-02 02:00N 40°42' W 124°06'0 0.0 350 / 91015.4 13.0 -0.0
2020-Jul-02 01:00N 40°42' W 124°06'0 0.0 340 / 101015.7 13.0 -0.0
2020-Jul-02 00:00N 40°42' W 124°06'0 0.0 340 / 121015.8 13.0 -0.0
2020-Jul-01 23:00N 40°42' W 124°06'0 0.0 350 / 131015.9 13.2 -0.0
2020-Jul-01 22:00N 40°42' W 124°06'0 0.0 340 / 151015.7 13.3 -0.0
2020-Jul-01 21:00N 40°42' W 124°06'0 0.0 340 / 161015.4 13.3 -0.0
2020-Jul-01 20:00N 40°42' W 124°06'0 0.0 350 / 141015.4 13.3 -0.0
2020-Jul-01 19:00N 40°42' W 124°06'0 0.0 350 / 111015.4 12.7 -0.0
2020-Jul-01 18:00N 40°42' W 124°06'0 0.0 330 / 51015.3 12.5 -0.0
2020-Jul-01 17:00N 40°42' W 124°06'0 0.0 340 / 41015.3 11.7 -0.0
2020-Jul-01 16:00N 40°42' W 124°06'0 0.0 340 / 61015.0 11.5 -0.0
2020-Jul-01 15:00N 40°42' W 124°06'0 0.0 330 / 41014.7 11.1 -0.0
2020-Jul-01 14:00N 40°42' W 124°06'0 0.0 270 / 21014.7 11.1 -0.0
2020-Jul-01 13:00N 40°42' W 124°06'0 0.0 120 / 11014.7 11.2 -0.0
2020-Jul-01 12:00N 40°42' W 124°06'0 0.0 140 / 31014.7 11.1 -0.0
2020-Jul-01 11:00N 40°42' W 124°06'0 0.0 290 / 31015.3 11.0 -0.0
2020-Jul-01 10:00N 40°42' W 124°06'0 0.0 320 / 51015.7 11.3 -0.0
2020-Jul-01 09:00N 40°42' W 124°06'0 0.0 290 / 31016.3 11.5 -0.0
2020-Jul-01 08:00N 40°42' W 124°06'0 0.0 330 / 41016.8 11.8 -0.0
2020-Jul-01 07:00N 40°42' W 124°06'0 0.0 340 / 61017.2 11.9 -0.0
2020-Jul-01 06:00N 40°42' W 124°06'0 0.0 340 / 51017.6 11.8 -0.0
2020-Jul-01 05:00N 40°42' W 124°06'0 0.0 320 / 41017.6 11.3 -0.0
2020-Jul-01 04:00N 40°42' W 124°06'0 0.0 330 / 41017.5 12.0 -0.0
2020-Jul-01 03:00N 40°42' W 124°06'0 0.0 330 / 61017.6 12.8 -0.0
2020-Jul-01 02:00N 40°42' W 124°06'0 0.0 330 / 71017.9 13.1 -0.0
2020-Jul-01 01:00N 40°42' W 124°06'0 0.0 340 / 81018.5 13.3 -0.0
2020-Jul-01 00:00N 40°42' W 124°06'0 0.0 340 / 81018.9 13.3 -0.0
2020-Jun-30 23:00N 40°42' W 124°06'0 0.0 340 / 101019.0 12.8 -0.0
2020-Jun-30 22:00N 40°42' W 124°06'0 0.0 350 / 81019.1 12.9 -0.0
2020-Jun-30 21:00N 40°42' W 124°06'0 0.0 330 / 101019.0 12.6 -0.0
2020-Jun-30 20:00N 40°42' W 124°06'0 0.0 340 / 111018.9 13.1 -0.0
2020-Jun-30 19:00N 40°42' W 124°06'0 0.0 340 / 121018.6 13.2 -0.0
2020-Jun-30 18:00N 40°42' W 124°06'0 0.0 320 / 71018.6 12.8 -0.0
2020-Jun-30 17:00N 40°42' W 124°06'0 0.0 260 / 41018.5 12.6 -0.0
2020-Jun-30 16:00N 40°42' W 124°06'0 0.0 200 / 41018.5 11.9 -0.0
2020-Jun-30 15:00N 40°42' W 124°06'0 0.0 240 / 31018.5 11.3 -0.0
2020-Jun-30 14:00N 40°42' W 124°06'0 0.0 290 / 41018.2 10.8 -0.0
2020-Jun-30 13:00N 40°42' W 124°06'0 0.0 340 / 21018.0 11.0 -0.0
2020-Jun-30 12:00N 40°42' W 124°06'0 0.0 350 / 11017.7 10.3 -0.0
2020-Jun-30 11:00N 40°42' W 124°06'0 0.0 300 / 41017.7 11.1 -0.0
2020-Jun-30 10:00N 40°42' W 124°06'0 0.0 320 / 41017.9 11.6 -0.0
2020-Jun-30 09:00N 40°42' W 124°06'0 0.0 330 / 21018.2 12.1 -0.0
2020-Jun-30 08:00N 40°42' W 124°06'0 0.0 350 / 41018.2 12.3 -0.0
2020-Jun-30 07:00N 40°42' W 124°06'0 0.0 350 / 31018.4 12.1 -0.0
2020-Jun-30 06:00N 40°42' W 124°06'0 0.0 350 / 21018.4 12.3 -0.0
2020-Jun-30 05:00N 40°42' W 124°06'0 0.0 330 / 21018.3 12.3 -0.0
2020-Jun-30 04:00N 40°42' W 124°06'0 0.0 330 / 101018.0 12.6 -0.0
2020-Jun-30 03:00N 40°42' W 124°06'0 0.0 330 / 111017.9 13.4 -0.0
2020-Jun-30 02:00N 40°42' W 124°06'0 0.0 340 / 81017.9 13.7 -0.0
2020-Jun-30 01:00N 40°42' W 124°06'0 0.0 340 / 71017.9 13.8 -0.0
2020-Jun-30 00:00N 40°42' W 124°06'0 0.0 350 / 141017.5 13.7 -0.0
2020-Jun-29 23:00N 40°42' W 124°06'0 0.0 350 / 121017.8 13.7 -0.0
2020-Jun-29 22:00N 40°42' W 124°06'0 0.0 350 / 111017.9 13.5 -0.0
2020-Jun-29 21:00N 40°42' W 124°06'0 0.0 350 / 151017.5 13.5 -0.0
2020-Jun-29 20:00N 40°42' W 124°06'0 0.0 350 / 181017.2 13.3 -0.0
2020-Jun-29 19:00N 40°42' W 124°06'0 0.0 350 / 161017.1 12.9 -0.0
2020-Jun-29 18:00N 40°42' W 124°06'0 0.0 360 / 111016.9 12.5 -0.0
2020-Jun-29 17:00N 40°42' W 124°06'0 0.0 350 / 91016.7 12.5 -0.0
2020-Jun-29 16:00N 40°42' W 124°06'0 0.0 310 / 41016.4 12.0 -0.0
2020-Jun-29 15:00N 40°42' W 124°06'0 0.0 170 / 31016.0 10.8 -0.0
2020-Jun-29 14:00N 40°42' W 124°06'0 0.0 180 / 31015.6 9.7 -0.0
2020-Jun-29 13:00N 40°42' W 124°06'0 0.0 250 / 11015.0 9.8 -0.0
2020-Jun-29 12:00N 40°42' W 124°06'0 0.0 150 / 21014.4 10.3 -0.0
2020-Jun-29 11:00N 40°42' W 124°06'0 0.0 080 / 41014.4 10.6 -0.0
2020-Jun-29 10:00N 40°42' W 124°06'0 0.0 360 / 101014.6 10.4 -0.0
2020-Jun-29 09:00N 40°42' W 124°06'0 0.0 350 / 121014.6 10.8 -0.0
2020-Jun-29 08:00N 40°42' W 124°06'0 0.0 340 / 91015.0 11.1 -0.0
2020-Jun-29 07:00N 40°42' W 124°06'0 0.0 320 / 31015.2 11.3 -0.0
2020-Jun-29 06:00N 40°42' W 124°06'0 0.0 1015.0 12.0 -0.0
2020-Jun-29 05:00N 40°42' W 124°06'0 0.0 020 / 101015.0 12.5 -0.0
2020-Jun-29 04:00N 40°42' W 124°06'0 0.0 020 / 81014.6 12.4 -0.0
2020-Jun-29 03:00N 40°42' W 124°06'0 0.0 010 / 121014.0 12.8 -0.0
2020-Jun-29 02:00N 40°42' W 124°06'0 0.0 010 / 141013.6 13.1 -0.0
2020-Jun-29 01:00N 40°42' W 124°06'0 0.0 1013.3 13.4 -0.0
2020-Jun-29 00:00N 40°42' W 124°06'0 0.0 1013.4 13.6 -0.0
2020-Jun-28 23:00N 40°42' W 124°06'0 0.0 360 / 161013.4 13.6 -0.0
2020-Jun-28 22:00N 40°42' W 124°06'0 0.0 350 / 171013.4 13.6 -0.0
2020-Jun-28 21:00N 40°42' W 124°06'0 0.0 360 / 161013.4 13.2 -0.0
2020-Jun-28 20:00N 40°42' W 124°06'0 0.0 1013.2 13.2 -0.0
2020-Jun-28 19:00N 40°42' W 124°06'0 0.0 1012.8 13.2 -0.0
2020-Jun-28 18:00N 40°42' W 124°06'0 0.0 010 / 141012.9 12.8 -0.0
2020-Jun-28 17:00N 40°42' W 124°06'0 0.0 360 / 131012.7 12.6 -0.0
2020-Jun-28 16:00N 40°42' W 124°06'0 0.0 360 / 101012.4 11.9 -0.0
2020-Jun-28 15:00N 40°42' W 124°06'0 0.0 350 / 111012.2 11.4 -0.0
2020-Jun-28 14:00N 40°42' W 124°06'0 0.0 340 / 101012.3 11.2 -0.0
2020-Jun-28 13:00N 40°42' W 124°06'0 0.0 350 / 81012.6 11.1 -0.0
2020-Jun-28 12:00N 40°42' W 124°06'0 0.0 350 / 101012.6 11.3 -0.0
2020-Jun-28 11:00N 40°42' W 124°06'0 0.0 340 / 101012.4 11.3 -0.0
2020-Jun-28 10:00N 40°42' W 124°06'0 0.0 340 / 91012.8 11.3 -0.0
2020-Jun-28 09:00N 40°42' W 124°06'0 0.0 330 / 91012.9 11.6 -0.0
2020-Jun-28 08:00N 40°42' W 124°06'0 0.0 320 / 61013.1 12.0 -0.0
2020-Jun-28 07:00N 40°42' W 124°06'0 0.0 330 / 71013.6 12.2 -0.0
2020-Jun-28 06:00N 40°42' W 124°06'0 0.0 340 / 61014.2 12.4 -0.0
2020-Jun-28 05:00N 40°42' W 124°06'0 0.0 350 / 61014.5 12.5 -0.0
2020-Jun-28 04:00N 40°42' W 124°06'0 0.0 350 / 81014.4 12.8 -0.0
2020-Jun-28 03:00N 40°42' W 124°06'0 0.0 350 / 61014.4 13.4 -0.0
2020-Jun-28 02:00N 40°42' W 124°06'0 0.0 350 / 71014.6 13.7 -0.0
2020-Jun-28 01:00N 40°42' W 124°06'0 0.0 330 / 91014.9 13.8 -0.0
2020-Jun-28 00:00N 40°42' W 124°06'0 0.0 320 / 151014.7 13.8 -0.0
2020-Jun-27 23:00N 40°42' W 124°06'0 0.0 320 / 151015.1 14.0 -0.0
2020-Jun-27 22:00N 40°42' W 124°06'0 0.0 330 / 101015.7 13.8 -0.0
2020-Jun-27 21:00N 40°42' W 124°06'0 0.0 340 / 111015.7 13.6 -0.0
2020-Jun-27 20:00N 40°42' W 124°06'0 0.0 350 / 151015.4 13.1 -0.0
2020-Jun-27 19:00N 40°42' W 124°06'0 0.0 330 / 91015.3 12.6 -0.0
2020-Jun-27 18:00N 40°42' W 124°06'0 0.0 330 / 71014.9 12.3 -0.0
2020-Jun-27 17:00N 40°42' W 124°06'0 0.0 340 / 41015.0 12.0 -0.0
2020-Jun-27 16:00N 40°42' W 124°06'0 0.0 220 / 41014.4 11.5 -0.0
2020-Jun-27 15:00N 40°42' W 124°06'0 0.0 230 / 51014.1 11.1 -0.0
2020-Jun-27 14:00N 40°42' W 124°06'0 0.0 170 / 51013.9 11.2 -0.0
2020-Jun-27 13:00N 40°42' W 124°06'0 0.0 220 / 51013.9 11.1 -0.0
2020-Jun-27 12:00N 40°42' W 124°06'0 0.0 260 / 41013.7 11.6 -0.0
2020-Jun-27 11:00N 40°42' W 124°06'0 0.0 180 / 41013.6 11.8 -0.0
2020-Jun-27 10:00N 40°42' W 124°06'0 0.0 190 / 51013.6 12.0 -0.0
2020-Jun-27 09:00N 40°42' W 124°06'0 0.0 190 / 61013.6 12.3 -0.0
2020-Jun-27 08:00N 40°42' W 124°06'0 0.0 270 / 31013.8 12.5 -0.0
2020-Jun-27 07:00N 40°42' W 124°06'0 0.0 210 / 61013.6 12.3 -0.0
2020-Jun-27 06:00N 40°42' W 124°06'0 0.0 210 / 41013.7 12.7 -0.0
2020-Jun-27 05:00N 40°42' W 124°06'0 0.0 230 / 51013.6 13.0 -0.0
2020-Jun-27 04:00N 40°42' W 124°06'0 0.0 230 / 51013.7 14.1 -0.0
2020-Jun-27 03:00N 40°42' W 124°06'0 0.0 260 / 31013.8 15.4 -0.0
2020-Jun-27 02:00N 40°42' W 124°06'0 0.0 290 / 51013.7 15.2 -0.0
2020-Jun-27 01:00N 40°42' W 124°06'0 0.0 280 / 51013.6 14.9 -0.0
2020-Jun-27 00:00N 40°42' W 124°06'0 0.0 290 / 51013.8 14.6 -0.0
2020-Jun-26 23:00N 40°42' W 124°06'0 0.0 290 / 51014.1 14.4 -0.0
2020-Jun-26 22:00N 40°42' W 124°06'0 0.0 300 / 71014.2 13.7 -0.0
2020-Jun-26 21:00N 40°42' W 124°06'0 0.0 300 / 41014.1 13.6 -0.0
2020-Jun-26 20:00N 40°42' W 124°06'0 0.0 310 / 41013.9 12.4 -0.0
2020-Jun-26 19:00N 40°42' W 124°06'0 0.0 320 / 41013.4 12.4 -0.0
2020-Jun-26 18:00N 40°42' W 124°06'0 0.0 320 / 31013.1 12.3 -0.0
2020-Jun-26 17:00N 40°42' W 124°06'0 0.0 300 / 41012.7 11.9 -0.0
2020-Jun-26 16:00N 40°42' W 124°06'0 0.0 220 / 11012.6 12.0 -0.0
2020-Jun-26 15:00N 40°42' W 124°06'0 0.0 230 / 11012.7 11.4 -0.0
2020-Jun-26 14:00N 40°42' W 124°06'0 0.0 280 / 31012.5 11.3 -0.0
2020-Jun-26 13:00N 40°42' W 124°06'0 0.0 300 / 31012.2 11.6 -0.0
2020-Jun-26 12:00N 40°42' W 124°06'0 0.0 330 / 21011.9 11.9 -0.0
2020-Jun-26 11:00N 40°42' W 124°06'0 0.0 340 / 21011.7 11.8 -0.0
2020-Jun-26 10:00N 40°42' W 124°06'0 0.0 200 / 51011.4 11.7 -0.0
2020-Jun-26 09:00N 40°42' W 124°06'0 0.0 200 / 81011.4 11.7 -0.0
2020-Jun-26 08:00N 40°42' W 124°06'0 0.0 230 / 61011.9 11.8 -0.0
2020-Jun-26 06:00N 40°42' W 124°06'0 0.0 300 / 21012.5 12.2 -0.0
2020-Jun-26 05:00N 40°42' W 124°06'0 0.0 340 / 71012.2 12.1 -0.0
2020-Jun-26 04:00N 40°42' W 124°06'0 0.0 340 / 71011.8 12.8 -0.0
2020-Jun-26 03:00N 40°42' W 124°06'0 0.0 310 / 41011.7 13.8 -0.0
2020-Jun-26 02:00N 40°42' W 124°06'0 0.0 310 / 51011.8 13.9 -0.0
2020-Jun-26 01:00N 40°42' W 124°06'0 0.0 320 / 71012.1 13.7 -0.0
2020-Jun-26 00:00N 40°42' W 124°06'0 0.0 340 / 91012.4 13.4 -0.0
2020-Jun-25 23:00N 40°42' W 124°06'0 0.0 330 / 91012.4 13.6 -0.0
2020-Jun-25 22:00N 40°42' W 124°06'0 0.0 340 / 91012.5 13.6 -0.0
2020-Jun-25 21:00N 40°42' W 124°06'0 0.0 340 / 81012.3 13.1 -0.0
2020-Jun-25 20:00N 40°42' W 124°06'0 0.0 320 / 61012.3 12.8 -0.0
2020-Jun-25 19:00N 40°42' W 124°06'0 0.0 270 / 51012.0 12.4 -0.0
2020-Jun-25 18:00N 40°42' W 124°06'0 0.0 290 / 51012.0 11.9 -0.0
2020-Jun-25 17:00N 40°42' W 124°06'0 0.0 340 / 51012.2 12.0 -0.0
2020-Jun-25 16:00N 40°42' W 124°06'0 0.0 320 / 31012.1 11.9 -0.0
2020-Jun-25 15:00N 40°42' W 124°06'0 0.0 330 / 41011.9 11.8 -0.0
2020-Jun-25 14:00N 40°42' W 124°06'0 0.0 310 / 31011.8 11.9 -0.0
2020-Jun-25 13:00N 40°42' W 124°06'0 0.0 300 / 31011.5 12.1 -0.0
2020-Jun-25 12:00N 40°42' W 124°06'0 0.0 350 / 31011.3 12.2 -0.0
2020-Jun-25 11:00N 40°42' W 124°06'0 0.0 270 / 31011.0 12.2 -0.0
2020-Jun-25 10:00N 40°42' W 124°06'0 0.0 200 / 61011.2 12.2 -0.0
2020-Jun-25 09:00N 40°42' W 124°06'0 0.0 230 / 31012.0 12.6 -0.0
2020-Jun-25 08:00N 40°42' W 124°06'0 0.0 290 / 21012.8 12.9 -0.0
2020-Jun-25 07:00N 40°42' W 124°06'0 0.0 330 / 31013.2 13.2 -0.0
2020-Jun-25 06:00N 40°42' W 124°06'0 0.0 360 / 51013.4 13.3 -0.0
2020-Jun-25 05:00N 40°42' W 124°06'0 0.0 340 / 71013.3 13.7 -0.0
2020-Jun-25 04:00N 40°42' W 124°06'0 0.0 330 / 41013.4 14.0 -0.0
2020-Jun-25 03:00N 40°42' W 124°06'0 0.0 310 / 41013.7 14.4 -0.0
2020-Jun-25 02:00N 40°42' W 124°06'0 0.0 310 / 41013.8 15.1 -0.0
2020-Jun-25 01:00N 40°42' W 124°06'0 0.0 330 / 61014.0 15.6 -0.0
2020-Jun-25 00:00N 40°42' W 124°06'0 0.0 340 / 81014.3 15.6 -0.0
2020-Jun-24 23:00N 40°42' W 124°06'0 0.0 350 / 71015.0 15.2 -0.0
2020-Jun-24 22:00N 40°42' W 124°06'0 0.0 360 / 61015.4 14.1 -0.0
2020-Jun-24 21:00N 40°42' W 124°06'0 0.0 340 / 71015.7 13.7 -0.0
2020-Jun-24 20:00N 40°42' W 124°06'0 0.0 320 / 41015.9 13.2 -0.0
2020-Jun-24 19:00N 40°42' W 124°06'0 0.0 320 / 71016.1 12.9 -0.0
2020-Jun-24 18:00N 40°42' W 124°06'0 0.0 260 / 51015.6 13.4 -0.0
2020-Jun-24 17:00N 40°42' W 124°06'0 0.0 210 / 21015.7 12.6 -0.0
2020-Jun-24 16:00N 40°42' W 124°06'0 0.0 360 / 51015.8 11.9 -0.0
2020-Jun-24 15:00N 40°42' W 124°06'0 0.0 340 / 81015.8 12.0 -0.0
2020-Jun-24 14:00N 40°42' W 124°06'0 0.0 340 / 41015.4 12.3 -0.0
2020-Jun-24 13:00N 40°42' W 124°06'0 0.0 340 / 21015.1 12.1 -0.0
2020-Jun-24 12:00N 40°42' W 124°06'0 0.0 320 / 11015.1 12.1 -0.0
2020-Jun-24 11:00N 40°42' W 124°06'0 0.0 260 / 31015.0 12.3 -0.0
2020-Jun-24 10:00N 40°42' W 124°06'0 0.0 290 / 41015.0 12.7 -0.0
2020-Jun-24 09:00N 40°42' W 124°06'0 0.0 340 / 61015.3 13.0 -0.0
2020-Jun-24 08:00N 40°42' W 124°06'0 0.0 010 / 81015.4 13.7 -0.0
2020-Jun-24 07:00N 40°42' W 124°06'0 0.0 1015.6 13.7 -0.0
2020-Jun-24 06:00N 40°42' W 124°06'0 0.0 300 / 41015.3 14.0 -0.0
2020-Jun-24 05:00N 40°42' W 124°06'0 0.0 290 / 21015.2 14.5 -0.0
2020-Jun-24 04:00N 40°42' W 124°06'0 0.0 330 / 31015.2 14.6 -0.0
2020-Jun-24 03:00N 40°42' W 124°06'0 0.0 360 / 41015.1 14.5 -0.0
2020-Jun-24 02:00N 40°42' W 124°06'0 0.0 340 / 51014.8 14.4 -0.0
2020-Jun-24 01:00N 40°42' W 124°06'0 0.0 340 / 71014.7 14.3 -0.0
2020-Jun-24 00:00N 40°42' W 124°06'0 0.0 340 / 81014.7 14.0 -0.0
2020-Jun-23 23:00N 40°42' W 124°06'0 0.0 320 / 71014.6 14.5 -0.0
2020-Jun-23 22:00N 40°42' W 124°06'0 0.0 320 / 61014.6 14.4 -0.0
2020-Jun-23 21:00N 40°42' W 124°06'0 0.0 280 / 61014.5 14.2 -0.0
2020-Jun-23 20:00N 40°42' W 124°06'0 0.0 230 / 111014.2 14.1 -0.0
2020-Jun-23 19:00N 40°42' W 124°06'   220 / 111014.0 14.1 -0.0

Dump ship's entire track history